Time;durP1;ratioP1;P1;durP2;ratioP2;P2;SDS_P1;SDS_P2;PMS_P1;PMS_P2;Temp;Humidity;BMP_temperature;BMP_pressure;BME280_temperature;BME280_humidity;BME280_pressure;Samples;Min_cycle;Max_cycle;Signal;HPM_P1;HPM_P2
2023/09/26 00:02:14;;;;;;;10.27;8.38;;;18.70;95.80;;;;;;6124528;23;20458;-67
2023/09/26 00:04:39;;;;;;;13.35;9.18;;;18.30;97.70;;;;;;6123946;23;20020;-67
2023/09/26 00:07:05;;;;;;;17.92;10.32;;;18.70;99.30;;;;;;6121719;23;20033;-67
2023/09/26 00:09:30;;;;;;;12.38;9.20;;;18.10;99.50;;;;;;6121871;23;20088;-67
2023/09/26 00:11:57;;;;;;;12.70;9.30;;;17.30;99.90;;;;;;6122956;23;20021;-67
2023/09/26 00:14:23;;;;;;;12.25;9.38;;;17.30;99.90;;;;;;6121945;23;20084;-67
2023/09/26 00:16:49;;;;;;;11.50;9.07;;;18.00;99.90;;;;;;6096740;23;20058;-67
2023/09/26 00:19:14;;;;;;;13.95;9.48;;;18.50;99.90;;;;;;6121484;23;20014;-67
2023/09/26 00:21:41;;;;;;;11.48;8.70;;;17.30;99.90;;;;;;6121440;23;20125;-67
2023/09/26 00:24:06;;;;;;;11.10;9.02;;;18.30;99.90;;;;;;6123310;23;20085;-67
2023/09/26 00:26:32;;;;;;;11.70;8.88;;;17.30;99.90;;;;;;6123484;23;20099;-67
2023/09/26 00:28:58;;;;;;;11.02;8.88;;;18.20;99.90;;;;;;6122539;23;20022;-67
2023/09/26 00:31:24;;;;;;;11.20;8.75;;;18.20;99.90;;;;;;6121733;23;20089;-67
2023/09/26 00:33:49;;;;;;;10.93;7.85;;;17.60;99.90;;;;;;6120684;23;20025;-67
2023/09/26 00:36:15;;;;;;;10.80;8.80;;;18.40;99.90;;;;;;6122343;23;20006;-67
2023/09/26 00:38:41;;;;;;;14.80;9.45;;;17.30;99.90;;;;;;6122677;23;20010;-67
2023/09/26 00:41:07;;;;;;;12.23;8.63;;;17.90;99.90;;;;;;6123154;23;20145;-67
2023/09/26 00:43:35;;;;;;;11.05;9.07;;;18.00;99.90;;;;;;6121554;23;20093;-67
2023/09/26 00:46:00;;;;;;;12.23;9.75;;;19.80;99.90;;;;;;6121368;23;20014;-67
2023/09/26 00:48:27;;;;;;;13.57;9.43;;;17.50;99.90;;;;;;6121471;23;20081;-67
2023/09/26 00:50:54;;;;;;;11.93;9.52;;;18.00;99.90;;;;;;6123171;23;20069;-67
2023/09/26 00:53:25;;;;;;;13.30;9.45;;;17.90;99.90;;;;;;6122927;23;20021;-67
2023/09/26 00:55:54;;;;;;;11.98;8.90;;;18.00;99.90;;;;;;6121054;23;20017;-67
2023/09/26 00:58:22;;;;;;;12.32;9.80;;;18.10;99.90;;;;;;6123062;23;20017;-67
2023/09/26 01:00:51;;;;;;;12.73;9.23;;;17.10;99.90;;;;;;6123392;23;20301;-67
2023/09/26 01:03:16;;;;;;;10.98;9.18;;;18.60;99.90;;;;;;6121312;23;20017;-67
2023/09/26 01:05:42;;;;;;;10.95;8.50;;;18.00;99.90;;;;;;6123018;23;20014;-67
2023/09/26 01:08:08;;;;;;;13.63;9.63;;;17.70;99.90;;;;;;6095973;23;20333;-67
2023/09/26 01:10:36;;;;;;;11.52;9.27;;;17.50;99.90;;;;;;6121428;23;20010;-67
2023/09/26 01:13:02;;;;;;;11.85;9.02;;;17.10;99.90;;;;;;6120630;23;20018;-67
2023/09/26 01:15:32;;;;;;;9.93;7.97;;;18.20;99.90;;;;;;6122873;23;20479;-68
2023/09/26 01:17:57;;;;;;;12.77;9.45;;;17.20;99.90;;;;;;6122493;23;20041;-68
2023/09/26 01:20:24;;;;;;;15.05;9.05;;;18.20;99.90;;;;;;6123214;23;20085;-67
2023/09/26 01:22:52;;;;;;;11.18;8.65;;;18.60;99.90;;;;;;6121058;23;20056;-67
2023/09/26 01:25:17;;;;;;;10.93;7.93;;;18.30;99.90;;;;;;6122789;23;20487;-67
2023/09/26 01:27:43;;;;;;;11.45;8.75;;;17.20;99.90;;;;;;6122532;23;20017;-67
2023/09/26 01:30:10;;;;;;;11.77;8.90;;;18.00;99.90;;;;;;6122948;23;20025;-67
2023/09/26 01:32:35;;;;;;;12.07;9.00;;;17.20;99.90;;;;;;6123001;23;20014;-67
2023/09/26 01:35:01;;;;;;;11.68;8.68;;;17.90;99.90;;;;;;6122249;23;20343;-67
2023/09/26 01:37:26;;;;;;;12.90;8.52;;;17.30;99.90;;;;;;6122290;23;20062;-67
2023/09/26 01:39:52;;;;;;;12.15;8.75;;;17.30;99.90;;;;;;6095397;23;20057;-67
2023/09/26 01:42:18;;;;;;;11.13;8.90;;;18.10;99.90;;;;;;6122796;23;20042;-67
2023/09/26 01:44:43;;;;;;;12.43;8.70;;;17.40;99.90;;;;;;6122774;23;20014;-67
2023/09/26 01:47:18;;;;;;;11.77;8.35;;;17.20;99.90;;;;;;6120882;23;20017;-66
2023/09/26 01:49:43;;;;;;;;;;;17.30;99.90;;;;;;6074014;23;20144;-67
2023/09/26 01:52:09;;;;;;;10.57;7.85;;;18.40;99.90;;;;;;6094706;23;19980;-67
2023/09/26 01:54:35;;;;;;;11.60;7.80;;;17.20;99.90;;;;;;6121951;23;20014;-67
2023/09/26 01:57:00;;;;;;;9.00;7.60;;;17.00;99.90;;;;;;6122893;23;20006;-67
2023/09/26 01:59:26;;;;;;;9.90;7.57;;;17.10;99.90;;;;;;6124100;23;20010;-67
2023/09/26 02:01:51;;;;;;;11.45;7.20;;;17.30;99.90;;;;;;6124178;23;20069;-67
2023/09/26 02:04:17;;;;;;;11.20;7.50;;;17.50;99.90;;;;;;6074804;23;20029;-67
2023/09/26 02:06:43;;;;;;;10.65;7.50;;;17.20;99.90;;;;;;6124264;23;20029;-67
2023/09/26 02:09:08;;;;;;;10.02;7.40;;;17.10;99.90;;;;;;6074255;23;20018;-67
2023/09/26 02:11:34;;;;;;;9.57;6.60;;;17.60;99.90;;;;;;6124200;23;20013;-67
2023/09/26 02:13:59;;;;;;;9.77;6.65;;;17.30;99.90;;;;;;6097905;23;20018;-67
2023/09/26 02:16:25;;;;;;;10.25;7.53;;;17.00;99.90;;;;;;6123756;23;20010;-67
2023/09/26 02:18:51;;;;;;;9.82;7.38;;;17.50;99.90;;;;;;6123826;23;20090;-67
2023/09/26 02:21:17;;;;;;;9.63;7.70;;;17.60;99.90;;;;;;6123634;23;20011;-67
2023/09/26 02:23:42;;;;;;;12.07;7.38;;;17.00;99.90;;;;;;6124398;23;20028;-67
2023/09/26 02:26:08;;;;;;;9.88;7.60;;;18.50;99.90;;;;;;6124429;23;20538;-67
2023/09/26 02:28:34;;;;;;;10.45;7.38;;;17.00;99.90;;;;;;6074184;23;20018;-67
2023/09/26 02:30:59;;;;;;;10.55;7.50;;;16.80;99.90;;;;;;6098566;23;20018;-67
2023/09/26 02:33:25;;;;;;;9.90;7.45;;;16.60;99.90;;;;;;6122936;23;20014;-67
2023/09/26 02:35:51;;;;;;;11.65;7.43;;;17.20;99.90;;;;;;6123958;23;20009;-67
2023/09/26 02:38:16;;;;;;;9.82;7.70;;;16.90;99.90;;;;;;6122737;23;20036;-67
2023/09/26 02:40:42;;;;;;;9.98;7.97;;;17.30;99.90;;;;;;6124696;23;20014;-67
2023/09/26 02:43:08;;;;;;;9.95;7.10;;;17.80;99.90;;;;;;6124536;23;20010;-67
2023/09/26 02:45:33;;;;;;;10.18;7.50;;;16.60;99.90;;;;;;6122952;23;20014;-67
2023/09/26 02:47:59;;;;;;;9.88;7.10;;;17.30;99.90;;;;;;6121712;23;20069;-67
2023/09/26 02:50:25;;;;;;;10.35;7.88;;;18.40;99.90;;;;;;6122505;23;20080;-67
2023/09/26 02:52:52;;;;;;;11.43;7.90;;;17.40;99.90;;;;;;6122564;23;20038;-67
2023/09/26 02:55:20;;;;;;;9.27;7.30;;;17.30;99.90;;;;;;6124394;23;20018;-67
2023/09/26 02:57:45;;;;;;;12.30;7.60;;;16.90;99.90;;;;;;6121707;23;20021;-67
2023/09/26 03:00:16;;;;;;;9.15;7.68;;;17.20;99.90;;;;;;6123315;23;20006;-67
2023/09/26 03:02:43;;;;;;;10.23;7.43;;;16.80;99.90;;;;;;6124598;23;20032;-67
2023/09/26 03:05:11;;;;;;;10.15;7.32;;;16.70;99.90;;;;;;6097454;23;20042;-67
2023/09/26 03:07:39;;;;;;;9.50;7.55;;;16.80;99.90;;;;;;6124068;23;20013;-67
2023/09/26 03:10:06;;;;;;;10.07;7.65;;;16.60;99.90;;;;;;6123789;23;20174;-67
2023/09/26 03:12:32;;;;;;;10.82;7.57;;;17.20;99.90;;;;;;6098121;23;20018;-67
2023/09/26 03:14:57;;;;;;;10.50;8.25;;;17.30;99.90;;;;;;6121954;23;20496;-67
2023/09/26 03:17:23;;;;;;;9.77;7.53;;;17.80;99.90;;;;;;6122058;23;20142;-67
2023/09/26 03:19:48;;;;;;;11.38;8.50;;;17.20;99.90;;;;;;6124071;23;20088;-67
2023/09/26 03:22:14;;;;;;;11.38;8.00;;;17.00;99.90;;;;;;6124096;23;20351;-68
2023/09/26 03:24:40;;;;;;;9.48;6.97;;;16.80;99.90;;;;;;6122321;23;20017;-67
2023/09/26 03:27:05;;;;;;;9.73;7.07;;;17.70;99.90;;;;;;6121733;23;20026;-67
2023/09/26 03:29:31;;;;;;;10.65;7.35;;;16.80;99.90;;;;;;6123980;23;20395;-67
2023/09/26 03:31:57;;;;;;;10.57;7.30;;;17.00;99.90;;;;;;6122119;23;20427;-67
2023/09/26 03:34:22;;;;;;;8.50;6.82;;;17.00;99.90;;;;;;6098337;23;20052;-67
2023/09/26 03:36:48;;;;;;;9.82;7.40;;;17.70;99.90;;;;;;6124399;23;20020;-67
2023/09/26 03:39:14;;;;;;;12.48;7.78;;;17.10;99.90;;;;;;6124434;23;20018;-67
2023/09/26 03:41:39;;;;;;;10.00;7.63;;;17.10;99.90;;;;;;6097630;23;20451;-67
2023/09/26 03:44:05;;;;;;;9.85;7.18;;;17.50;99.90;;;;;;6122255;23;20056;-67
2023/09/26 03:46:33;;;;;;;10.95;7.65;;;16.90;99.90;;;;;;6123403;23;20017;-67
2023/09/26 03:48:58;;;;;;;10.30;7.68;;;17.10;99.90;;;;;;6096253;23;20130;-67
2023/09/26 03:51:24;;;;;;;10.88;7.68;;;16.50;99.20;;;;;;6120742;23;20511;-67
2023/09/26 03:53:49;;;;;;;10.48;7.82;;;17.00;97.10;;;;;;6121511;23;20366;-67
2023/09/26 03:56:15;;;;;;;11.18;8.00;;;16.60;99.00;;;;;;6123013;23;20061;-67
2023/09/26 03:58:41;;;;;;;10.43;7.32;;;16.90;97.10;;;;;;6097485;23;20084;-67
2023/09/26 04:01:12;;;;;;;9.55;7.40;;;16.90;93.90;;;;;;6121350;23;20009;-67
2023/09/26 04:03:38;;;;;;;10.07;7.38;;;16.80;93.60;;;;;;6124233;23;20049;-67
2023/09/26 04:06:04;;;;;;;9.60;7.32;;;17.10;93.60;;;;;;6123899;23;20021;-67
2023/09/26 04:08:30;;;;;;;10.00;7.55;;;16.80;91.10;;;;;;6097316;23;20471;-67
2023/09/26 04:10:55;;;;;;;9.98;8.00;;;16.70;94.30;;;;;;6123585;23;20014;-67
2023/09/26 04:13:21;;;;;;;11.25;7.95;;;16.70;93.90;;;;;;6073202;23;20017;-67
2023/09/26 04:15:47;;;;;;;10.90;7.60;;;16.20;93.00;;;;;;6123296;23;20009;-67
2023/09/26 04:18:13;;;;;;;9.02;7.25;;;17.00;92.80;;;;;;6095653;23;20013;-67
2023/09/26 04:20:40;;;;;;;10.35;7.57;;;16.80;92.20;;;;;;6123462;23;20017;-67
2023/09/26 04:23:05;;;;;;;10.90;7.22;;;17.50;96.50;;;;;;6123447;23;20018;-67
2023/09/26 04:25:34;;;;;;;9.02;7.15;;;16.40;94.90;;;;;;6124049;23;20037;-67
2023/09/26 04:28:00;;;;;;;10.13;6.97;;;17.10;89.90;;;;;;6122846;23;20145;-67
2023/09/26 04:30:25;;;;;;;9.70;7.20;;;17.30;90.50;;;;;;6123886;23;20463;-67
2023/09/26 04:32:51;;;;;;;11.48;7.80;;;16.80;94.30;;;;;;6121631;23;20049;-67
2023/09/26 04:35:17;;;;;;;12.05;6.80;;;16.90;97.20;;;;;;6096955;23;20014;-67
2023/09/26 04:37:43;;;;;;;8.52;5.72;;;16.60;98.60;;;;;;6122670;23;20022;-67
2023/09/26 04:40:10;;;;;;;10.82;7.38;;;16.20;99.90;;;;;;6096964;23;20021;-67
2023/09/26 04:42:40;;;;;;;9.75;7.78;;;16.60;99.90;;;;;;6121503;23;20006;-67
2023/09/26 04:45:07;;;;;;;12.05;8.52;;;17.00;98.10;;;;;;6096761;23;20072;-67
2023/09/26 04:47:33;;;;;;;12.02;8.50;;;17.30;94.20;;;;;;6095633;23;20013;-67
2023/09/26 04:49:58;;;;;;;13.35;7.85;;;17.10;89.20;;;;;;6123320;23;20093;-68
2023/09/26 04:52:24;;;;;;;14.20;7.40;;;17.10;91.80;;;;;;6124022;23;20014;-68
2023/09/26 04:54:53;;;;;;;13.98;7.43;;;16.30;90.40;;;;;;6123695;23;20088;-68
2023/09/26 04:57:18;;;;;;;15.20;8.18;;;17.80;94.10;;;;;;6095683;23;20226;-68
2023/09/26 04:59:44;;;;;;;13.32;8.07;;;17.20;87.60;;;;;;6123015;23;20143;-68
2023/09/26 05:02:09;;;;;;;12.70;7.50;;;17.30;82.70;;;;;;6121670;23;20313;-68
2023/09/26 05:04:35;;;;;;;12.82;7.50;;;17.50;75.40;;;;;;6118098;23;20014;-68
2023/09/26 05:07:03;;;;;;;11.98;7.28;;;16.60;66.70;;;;;;6121330;23;20607;-68
2023/09/26 05:09:29;;;;;;;10.32;6.85;;;17.20;52.00;;;;;;6120765;23;20022;-68
2023/09/26 05:11:54;;;;;;;12.15;7.30;;;16.80;43.40;;;;;;6122144;23;20085;-68
2023/09/26 05:14:20;;;;;;;11.25;6.35;;;16.80;40.30;;;;;;6096941;23;20014;-68
2023/09/26 05:16:46;;;;;;;12.13;7.38;;;17.30;33.90;;;;;;6119609;23;20014;-67
2023/09/26 05:19:11;;;;;;;9.50;7.05;;;17.00;27.90;;;;;;6121412;23;20064;-67
2023/09/26 05:21:38;;;;;;;13.90;7.97;;;17.30;17.20;;;;;;6123935;23;20499;-67
2023/09/26 05:24:04;;;;;;;9.50;7.13;;;17.10;12.20;;;;;;6099270;23;20022;-67
2023/09/26 05:26:30;;;;;;;11.23;6.70;;;17.10;5.30;;;;;;6125720;23;20036;-67
2023/09/26 05:28:56;;;;;;;10.70;6.85;;;17.20;1.80;;;;;;6124474;23;20471;-67
2023/09/26 05:31:21;;;;;;;9.93;6.18;;;17.40;1.00;;;;;;6103623;23;20028;-67
2023/09/26 05:33:47;;;;;;;9.27;6.43;;;17.70;1.00;;;;;;6123609;23;20021;-67
2023/09/26 05:36:13;;;;;;;9.20;6.97;;;17.40;1.00;;;;;;6125088;23;20072;-67
2023/09/26 05:38:38;;;;;;;11.27;7.15;;;17.10;1.00;;;;;;6124607;23;20387;-67
2023/09/26 05:41:05;;;;;;;13.70;7.20;;;17.40;1.00;;;;;;6124668;23;20014;-67
2023/09/26 05:43:31;;;;;;;8.82;6.45;;;17.30;1.00;;;;;;6123435;23;20025;-67
2023/09/26 05:45:57;;;;;;;9.45;6.57;;;17.40;1.00;;;;;;6124973;23;20479;-67
2023/09/26 05:48:23;;;;;;;9.52;7.03;;;17.30;1.00;;;;;;6124272;23;20014;-67
2023/09/26 05:50:56;;;;;;;10.70;7.32;;;16.70;1.00;;;;;;6125200;23;20021;-67
2023/09/26 05:53:22;;;;;;;11.50;6.90;;;16.90;1.00;;;;;;6124552;23;20021;-67
2023/09/26 05:55:51;;;;;;;9.25;7.50;;;16.90;1.00;;;;;;6120049;23;20072;-67
2023/09/26 05:58:18;;;;;;;10.52;6.93;;;17.20;1.00;;;;;;6123364;23;20348;-67
2023/09/26 06:00:48;;;;;;;10.00;6.53;;;17.00;1.00;;;;;;6125212;23;20006;-67
2023/09/26 06:03:14;;;;;;;10.20;6.90;;;17.50;1.00;;;;;;6125540;23;20133;-67
2023/09/26 06:05:40;;;;;;;9.45;6.97;;;18.10;1.00;;;;;;6125171;23;20021;-67
2023/09/26 06:08:06;;;;;;;9.65;6.82;;;17.50;1.00;;;;;;6124116;23;20081;-67
2023/09/26 06:10:32;;;;;;;9.75;6.22;;;17.30;1.00;;;;;;6124773;23;20053;-67
2023/09/26 06:12:58;;;;;;;10.80;7.80;;;17.00;1.00;;;;;;6124675;23;20010;-67
2023/09/26 06:15:23;;;;;;;10.27;8.15;;;16.90;1.00;;;;;;6124385;23;20185;-67
2023/09/26 06:17:49;;;;;;;10.50;7.68;;;17.00;1.00;;;;;;6124210;23;20321;-67
2023/09/26 06:20:15;;;;;;;10.65;7.40;;;17.40;1.00;;;;;;6124398;23;20017;-67
2023/09/26 06:22:41;;;;;;;9.13;7.10;;;17.60;1.00;;;;;;6124719;23;20018;-67
2023/09/26 06:25:07;;;;;;;11.23;7.82;;;18.10;1.00;;;;;;6123470;23;20140;-67
2023/09/26 06:27:34;;;;;;;9.85;7.70;;;17.20;1.00;;;;;;6123551;23;20014;-67
2023/09/26 06:30:00;;;;;;;11.40;7.88;;;17.20;1.00;;;;;;6123332;23;20010;-67
2023/09/26 06:32:26;;;;;;;9.93;7.18;;;17.60;1.00;;;;;;6124524;23;20513;-67
2023/09/26 06:34:56;;;;;;;9.77;7.32;;;18.10;1.00;;;;;;6125126;23;20014;-67
2023/09/26 06:37:21;;;;;;;10.02;8.15;;;17.40;1.00;;;;;;6097615;23;20359;-67
2023/09/26 06:39:47;;;;;;;11.95;7.40;;;16.80;6.40;;;;;;6124604;23;20014;-67
2023/09/26 06:42:12;;;;;;;9.80;7.53;;;17.20;12.70;;;;;;6098164;23;20017;-67
2023/09/26 06:44:38;;;;;;;11.40;7.70;;;16.90;17.00;;;;;;6124581;23;20016;-67
2023/09/26 06:47:04;;;;;;;9.85;6.90;;;17.50;19.10;;;;;;6123965;23;20105;-67
2023/09/26 06:49:29;;;;;;;11.27;8.02;;;17.00;27.30;;;;;;6097735;23;20064;-67
2023/09/26 06:51:55;;;;;;;11.85;7.40;;;17.50;33.90;;;;;;6124497;23;20040;-67
2023/09/26 06:54:21;;;;;;;10.40;8.18;;;17.20;36.30;;;;;;6097493;23;20360;-67
2023/09/26 06:56:47;;;;;;;10.07;7.15;;;17.10;46.10;;;;;;6124127;23;20014;-67
2023/09/26 06:59:12;;;;;;;11.18;7.72;;;17.60;48.00;;;;;;6097443;23;20018;-67
2023/09/26 07:01:38;;;;;;;11.15;7.00;;;18.20;55.60;;;;;;6098425;23;20479;-67
2023/09/26 07:04:04;;;;;;;8.75;6.63;;;18.20;58.40;;;;;;6125052;23;20025;-69
2023/09/26 07:06:30;;;;;;;8.43;6.30;;;17.10;61.20;;;;;;6124824;23;20483;-68
2023/09/26 07:08:57;;;;;;;10.35;7.30;;;17.10;57.10;;;;;;6098293;23;20014;-67
2023/09/26 07:11:23;;;;;;;9.73;6.93;;;16.90;61.30;;;;;;6097840;23;20083;-68
2023/09/26 07:13:49;;;;;;;9.32;7.35;;;17.10;64.10;;;;;;6123956;23;20022;-68
2023/09/26 07:16:14;;;;;;;9.73;7.03;;;17.10;66.30;;;;;;6123890;23;20013;-67
2023/09/26 07:18:40;;;;;;;9.50;7.35;;;17.30;63.20;;;;;;6097355;23;20010;-68
2023/09/26 07:21:07;;;;;;;11.13;6.85;;;17.30;70.20;;;;;;6124142;23;20014;-67
2023/09/26 07:23:36;;;;;;;10.77;7.00;;;17.40;67.70;;;;;;6123838;23;20472;-67
2023/09/26 07:26:16;;;;;;;8.85;6.75;;;17.10;53.90;;;;;;6124031;23;20014;-67
2023/09/26 07:28:43;;;;;;;9.15;6.07;;;17.40;73.60;;;;;;6123024;23;20344;-67
2023/09/26 07:31:11;;;;;;;9.65;6.72;;;17.30;70.40;;;;;;6095458;23;20018;-67
2023/09/26 07:33:38;;;;;;;9.18;4.72;;;17.80;79.10;;;;;;6097930;23;20547;-67
2023/09/26 07:36:04;;;;;;;7.70;5.10;;;18.00;77.20;;;;;;6098207;23;20014;-67
2023/09/26 07:38:32;;;;;;;8.30;5.72;;;17.90;64.40;;;;;;6097803;23;20005;-68
2023/09/26 07:40:58;;;;;;;8.93;6.53;;;17.60;65.30;;;;;;6124268;23;20176;-67
2023/09/26 07:43:29;;;;;;;7.70;4.57;;;17.70;64.70;;;;;;6123486;23;20014;-67
2023/09/26 07:46:05;;;;;;;7.47;4.30;;;17.70;72.60;;;;;;6073712;23;20056;-67
2023/09/26 07:48:32;;;;;;;6.35;3.72;;;18.20;67.30;;;;;;6096919;23;20041;-67
2023/09/26 07:50:58;;;;;;;6.85;3.10;;;17.20;62.80;;;;;;6123478;23;20018;-67
2023/09/26 07:53:24;;;;;;;5.85;3.08;;;18.30;45.30;;;;;;6123255;23;20024;-67
2023/09/26 07:55:50;;;;;;;5.80;3.60;;;17.30;45.60;;;;;;6123740;23;20021;-68
2023/09/26 07:58:16;;;;;;;6.63;3.55;;;17.40;36.90;;;;;;6096540;23;20010;-67
2023/09/26 08:00:42;;;;;;;7.47;3.70;;;17.50;25.90;;;;;;6123692;23;20010;-68
2023/09/26 08:03:08;;;;;;;6.18;3.47;;;17.20;26.80;;;;;;6122017;23;20077;-68
2023/09/26 08:05:34;;;;;;;6.63;3.83;;;18.30;22.70;;;;;;6123616;23;20017;-67
2023/09/26 08:08:04;;;;;;;6.70;3.50;;;18.30;17.90;;;;;;6123834;23;20018;-67
2023/09/26 08:10:31;;;;;;;6.82;3.03;;;17.90;9.70;;;;;;6097687;23;20403;-68
2023/09/26 08:12:56;;;;;;;5.80;3.10;;;17.30;12.00;;;;;;6097168;23;20092;-67
2023/09/26 08:15:22;;;;;;;6.38;3.58;;;17.20;7.80;;;;;;6123088;23;20037;-67
2023/09/26 08:17:48;;;;;;;5.28;2.92;;;18.10;5.90;;;;;;6096921;23;20022;-68
2023/09/26 08:20:14;;;;;;;5.70;3.00;;;17.80;1.00;;;;;;6097101;23;20014;-68
2023/09/26 08:22:39;;;;;;;6.30;3.20;;;18.40;1.00;;;;;;6097221;23;20455;-68
2023/09/26 08:25:07;;;;;;;6.68;3.17;;;17.50;1.00;;;;;;6123727;23;20088;-68
2023/09/26 08:27:33;;;;;;;5.75;3.10;;;18.30;1.00;;;;;;6096752;23;20041;-68
2023/09/26 08:29:59;;;;;;;6.65;3.67;;;17.30;1.00;;;;;;6123350;23;20557;-68
2023/09/26 08:32:25;;;;;;;6.35;3.35;;;18.60;1.00;;;;;;6123164;23;20014;-68
2023/09/26 08:34:51;;;;;;;6.10;3.10;;;18.60;1.00;;;;;;6121603;23;20033;-68
2023/09/26 08:37:17;;;;;;;6.18;3.10;;;17.30;1.00;;;;;;6122065;23;20488;-68
2023/09/26 08:39:47;;;;;;;5.72;3.00;;;18.50;1.00;;;;;;6122899;23;20392;-68
2023/09/26 08:42:27;;;;;;;5.88;3.13;;;18.10;1.00;;;;;;6097307;23;20017;-68
2023/09/26 08:44:57;;;;;;;5.55;2.92;;;17.80;1.00;;;;;;6097537;23;20337;-68
2023/09/26 08:47:27;;;;;;;6.00;3.17;;;18.90;1.00;;;;;;6123139;23;20040;-68
2023/09/26 08:49:57;;;;;;;6.95;3.22;;;17.70;1.00;;;;;;6096960;23;20258;-68
2023/09/26 08:52:23;;;;;;;6.22;3.42;;;17.90;1.00;;;;;;6096407;23;20021;-68
2023/09/26 08:54:50;;;;;;;5.88;2.80;;;17.50;1.00;;;;;;6121835;23;20060;-68
2023/09/26 08:57:18;;;;;;;5.93;3.17;;;18.10;1.00;;;;;;6122234;23;20512;-68
2023/09/26 08:59:46;;;;;;;6.45;3.45;;;17.70;1.00;;;;;;6122029;23;20031;-68
2023/09/26 09:02:12;;;;;;;5.63;2.88;;;18.40;1.00;;;;;;6122963;23;20016;-68
2023/09/26 09:04:42;;;;;;;5.80;3.25;;;18.60;1.00;;;;;;6122585;23;20014;-68
2023/09/26 09:07:09;;;;;;;5.85;3.17;;;18.10;1.00;;;;;;6096159;23;20351;-68
2023/09/26 09:09:34;;;;;;;5.70;3.17;;;18.10;1.00;;;;;;6122059;23;20021;-68
2023/09/26 09:12:00;;;;;;;6.00;2.92;;;17.70;1.00;;;;;;6122096;23;20014;-68
2023/09/26 09:14:34;;;;;;;6.57;3.25;;;17.50;1.00;;;;;;6096478;23;20018;-68
2023/09/26 09:17:00;;;;;;;6.75;3.20;;;18.50;1.00;;;;;;6122521;23;20045;-68
2023/09/26 09:19:47;;;;;;;5.72;3.15;;;18.40;1.00;;;;;;6097117;23;20014;-68
2023/09/26 09:22:20;;;;;;;5.60;2.92;;;;;;;;;;6097927;23;20014;-69
2023/09/26 09:24:54;;;;;;;6.07;3.10;;;18.40;1.00;;;;;;6096920;23;20022;-68
2023/09/26 09:27:43;;;;;;;6.20;3.17;;;17.60;1.00;;;;;;6095768;23;20321;-68
2023/09/26 09:30:12;;;;;;;7.05;3.17;;;17.90;1.00;;;;;;6122196;23;20014;-69
2023/09/26 09:32:41;;;;;;;6.28;3.33;;;17.70;1.00;;;;;;6121856;23;20358;-68
2023/09/26 09:35:09;;;;;;;6.85;3.55;;;18.00;1.00;;;;;;6072003;23;20070;-68
2023/09/26 09:37:35;;;;;;;5.65;2.53;;;18.00;1.00;;;;;;6121504;23;20512;-68
2023/09/26 09:40:00;;;;;;;5.45;3.13;;;18.50;1.00;;;;;;6122252;23;20081;-68
2023/09/26 09:42:26;;;;;;;5.95;2.78;;;18.20;1.00;;;;;;6122015;23;20006;-68
2023/09/26 09:44:52;;;;;;;6.30;2.80;;;18.60;1.00;;;;;;6096280;23;20092;-68
2023/09/26 09:47:23;;;;;;;5.35;2.63;;;17.70;1.00;;;;;;6121413;23;20014;-69
2023/09/26 09:49:50;;;;;;;6.57;3.08;;;18.80;1.00;;;;;;6071647;23;20097;-68
2023/09/26 09:52:20;;;;;;;6.10;3.20;;;18.50;1.00;;;;;;6096267;23;20025;-68
2023/09/26 09:54:46;;;;;;;5.93;2.90;;;18.30;1.00;;;;;;6121952;23;20029;-68
2023/09/26 09:57:15;;;;;;;6.00;2.90;;;18.00;1.00;;;;;;6095210;23;20467;-68
2023/09/26 09:59:42;;;;;;;5.90;2.88;;;18.70;1.00;;;;;;6121751;23;20021;-68
2023/09/26 10:02:11;;;;;;;6.30;2.85;;;18.30;1.00;;;;;;6121516;23;20352;-68
2023/09/26 10:04:40;;;;;;;5.55;2.88;;;18.90;1.00;;;;;;6095890;23;20018;-68
2023/09/26 10:07:06;;;;;;;6.07;2.72;;;18.10;1.00;;;;;;6095851;23;20478;-68
2023/09/26 10:09:34;;;;;;;6.05;3.40;;;18.40;1.00;;;;;;6097994;23;20017;-69
2023/09/26 10:12:01;;;;;;;6.18;2.97;;;18.60;1.00;;;;;;6098211;23;20359;-68
2023/09/26 10:14:30;;;;;;;5.85;3.03;;;18.70;1.00;;;;;;6123981;23;20080;-69
2023/09/26 10:16:57;;;;;;;5.80;3.28;;;18.30;1.00;;;;;;6097937;23;20399;-69
2023/09/26 10:19:25;;;;;;;5.72;2.80;;;18.30;1.00;;;;;;6097815;23;20452;-68
2023/09/26 10:21:52;;;;;;;5.93;2.97;;;18.50;1.00;;;;;;6097417;23;20068;-68
2023/09/26 10:24:18;;;;;;;6.00;2.70;;;18.40;1.00;;;;;;6123879;23;20021;-68
2023/09/26 10:26:47;;;;;;;6.30;3.15;;;17.50;1.00;;;;;;6123735;23;20018;-68
2023/09/26 10:29:26;;;;;;;7.05;3.17;;;18.60;1.00;;;;;;6097229;23;20022;-68
2023/09/26 10:32:03;;;;;;;6.15;2.97;;;18.20;1.00;;;;;;6108715;23;20021;-68
2023/09/26 10:34:32;;;;;;;6.10;3.17;;;18.80;1.00;;;;;;6124227;23;20013;-68
2023/09/26 10:36:59;;;;;;;5.90;3.25;;;16.30;1.00;;;;;;6097723;23;20014;-68
2023/09/26 10:39:39;;;;;;;5.80;3.60;;;18.70;1.00;;;;;;6123385;23;20406;-68
2023/09/26 10:42:13;;;;;;;6.25;3.25;;;18.50;1.00;;;;;;6122455;23;20089;-68
2023/09/26 10:44:43;;;;;;;6.05;3.13;;;18.50;1.00;;;;;;6123974;23;20017;-69
2023/09/26 10:47:13;;;;;;;5.72;3.05;;;18.40;1.00;;;;;;6121465;23;20472;-68
2023/09/26 10:49:39;;;;;;;6.50;3.25;;;18.30;1.00;;;;;;6123624;23;20600;-69
2023/09/26 10:52:08;;;;;;;7.18;3.88;;;18.60;1.00;;;;;;6123429;23;20018;-68
2023/09/26 10:54:37;;;;;;;6.53;3.00;;;18.40;1.00;;;;;;6121870;23;20014;-68
2023/09/26 10:57:03;;;;;;;6.60;3.63;;;18.20;1.00;;;;;;6123136;23;20145;-69
2023/09/26 10:59:30;;;;;;;6.00;3.17;;;18.00;1.00;;;;;;6121606;23;20014;-69
2023/09/26 11:02:01;;;;;;;5.95;3.70;;;18.30;1.00;;;;;;6121091;23;20026;-69
2023/09/26 11:04:31;;;;;;;6.32;3.65;;;18.40;1.00;;;;;;6123420;23;20017;-69
2023/09/26 11:07:02;;;;;;;7.82;4.13;;;18.40;1.00;;;;;;6121608;23;20479;-69
2023/09/26 11:09:28;;;;;;;7.30;4.10;;;18.40;1.00;;;;;;6122049;23;20010;-69
2023/09/26 11:11:56;;;;;;;6.57;3.63;;;19.10;1.00;;;;;;6097378;23;20021;-69
2023/09/26 11:14:26;;;;;;;7.63;3.72;;;18.60;1.00;;;;;;6123697;23;20025;-69
2023/09/26 11:16:52;;;;;;;6.90;3.78;;;18.70;1.00;;;;;;6121719;23;20096;-69
2023/09/26 11:19:21;;;;;;;7.13;3.55;;;18.50;1.00;;;;;;6121046;23;20014;-69
2023/09/26 11:21:50;;;;;;;5.80;2.90;;;17.70;1.00;;;;;;6096791;23;20099;-69
2023/09/26 11:24:32;;;;;;;6.35;3.30;;;18.50;1.00;;;;;;6119453;23;20022;-69
2023/09/26 11:27:05;;;;;;;7.97;3.75;;;18.20;1.00;;;;;;6117529;23;20487;-69
2023/09/26 11:29:34;;;;;;;6.70;3.83;;;18.70;1.00;;;;;;6095884;23;20017;-69
2023/09/26 11:32:00;;;;;;;6.55;3.35;;;18.70;1.00;;;;;;6122052;23;20018;-69
2023/09/26 11:34:26;;;;;;;6.95;3.30;;;17.80;1.00;;;;;;6122919;23;20065;-69
2023/09/26 11:36:52;;;;;;;8.40;3.58;;;17.90;1.00;;;;;;6096647;23;20375;-69
2023/09/26 11:39:19;;;;;;;7.18;3.13;;;18.30;1.00;;;;;;6123191;23;20530;-70
2023/09/26 11:41:45;;;;;;;7.45;3.10;;;18.40;1.00;;;;;;6119949;23;20021;-73
2023/09/26 11:44:12;;;;;;;6.45;3.30;;;18.90;1.00;;;;;;6120287;23;20060;-69
2023/09/26 11:46:41;;;;;;;6.20;3.30;;;18.60;1.00;;;;;;6095442;23;20029;-69
2023/09/26 11:49:07;;;;;;;7.18;3.65;;;18.50;4.40;;;;;;6096227;23;20017;-69
2023/09/26 11:51:33;;;;;;;6.05;3.13;;;18.50;1.00;;;;;;6072463;23;20060;-69
2023/09/26 11:53:59;;;;;;;5.82;3.25;;;18.00;1.00;;;;;;6095873;23;20014;-69
2023/09/26 11:56:28;;;;;;;8.68;3.80;;;18.90;1.00;;;;;;6097183;23;20011;-69
2023/09/26 11:58:54;;;;;;;6.70;3.58;;;18.90;1.90;;;;;;6095820;23;20470;-69
2023/09/26 12:01:20;;;;;;;5.40;2.83;;;18.90;1.00;;;;;;6121141;23;20018;-69
2023/09/26 12:03:46;;;;;;;7.43;3.42;;;18.30;1.00;;;;;;6095848;23;20021;-70
2023/09/26 12:06:12;;;;;;;6.68;3.17;;;19.00;1.00;;;;;;6096531;23;20065;-69
2023/09/26 12:08:38;;;;;;;6.40;3.58;;;18.60;1.00;;;;;;6095971;23;20045;-70
2023/09/26 12:11:04;;;;;;;5.32;2.88;;;18.80;1.00;;;;;;6095381;23;20332;-69
2023/09/26 12:13:30;;;;;;;6.03;3.00;;;18.60;1.40;;;;;;6123204;23;20021;-69
2023/09/26 12:15:57;;;;;;;7.00;3.42;;;18.80;1.90;;;;;;6096596;23;20018;-69
2023/09/26 12:18:22;;;;;;;6.28;3.22;;;18.50;2.40;;;;;;6096078;23;20584;-69
2023/09/26 12:20:53;;;;;;;8.00;3.60;;;18.00;2.00;;;;;;6096492;23;20020;-70
2023/09/26 12:23:21;;;;;;;5.97;3.28;;;19.10;4.70;;;;;;6097233;23;20088;-69
2023/09/26 12:25:47;;;;;;;6.30;3.05;;;19.00;5.50;;;;;;6096029;23;20511;-69
2023/09/26 12:28:13;;;;;;;6.28;3.17;;;18.80;5.80;;;;;;6096074;23;20017;-69
2023/09/26 12:30:41;;;;;;;6.57;3.28;;;18.60;4.30;;;;;;6096522;23;20021;-69
2023/09/26 12:33:07;;;;;;;6.40;3.10;;;18.60;5.40;;;;;;6092256;23;20018;-69
2023/09/26 12:35:33;;;;;;;5.97;2.90;;;18.70;7.70;;;;;;6122594;23;20025;-69
2023/09/26 12:37:59;;;;;;;5.97;2.92;;;18.80;7.90;;;;;;6121375;23;20018;-69
2023/09/26 12:40:25;;;;;;;6.53;3.03;;;18.70;9.50;;;;;;6122719;23;20010;-69
2023/09/26 12:42:51;;;;;;;5.35;2.70;;;18.60;10.30;;;;;;6121037;23;20010;-69
2023/09/26 12:45:17;;;;;;;5.40;2.85;;;18.00;10.70;;;;;;6096151;23;20018;-69
2023/09/26 12:47:42;;;;;;;5.72;2.90;;;18.90;11.80;;;;;;6096046;23;20098;-69